createdAt,value
2022-11-15T00:01:44.067Z,2.31
2022-11-15T00:04:29.514Z,2.56
2022-11-15T00:07:33.227Z,2.17
2022-11-15T00:10:19.932Z,1.91
2022-11-15T00:13:09.497Z,2.52
2022-11-15T00:15:58.561Z,2.86
2022-11-15T00:18:49.277Z,2.16
2022-11-15T00:21:35.917Z,2.10
2022-11-15T00:24:21.037Z,2.01
2022-11-15T00:27:08.101Z,2.02
2022-11-15T00:29:54.367Z,2.21
2022-11-15T00:32:39.456Z,2.20
2022-11-15T00:35:24.802Z,2.58
2022-11-15T00:38:11.789Z,2.79
2022-11-15T00:40:57.141Z,2.53
2022-11-15T00:43:44.448Z,1.40
2022-11-15T00:46:29.648Z,2.56
2022-11-15T00:49:14.939Z,2.33
2022-11-15T00:52:00.495Z,2.24
2022-11-15T00:54:45.847Z,1.49
2022-11-15T00:57:30.994Z,1.94
2022-11-15T01:00:17.033Z,1.83
2022-11-15T01:03:02.622Z,1.97
2022-11-15T01:05:48.214Z,1.63
2022-11-15T01:08:34.434Z,2.08
2022-11-15T01:11:22.898Z,1.38
2022-11-15T01:14:08.168Z,1.81
2022-11-15T01:16:53.361Z,1.72
2022-11-15T01:19:38.471Z,1.55
2022-11-15T01:22:23.517Z,1.87
2022-11-15T01:25:08.729Z,1.72
2022-11-15T01:27:53.858Z,1.93
2022-11-15T01:30:39.414Z,1.51
2022-11-15T01:33:24.514Z,1.40
2022-11-15T01:36:13.883Z,1.33
2022-11-15T01:39:00.051Z,2.03
2022-11-15T01:41:45.182Z,1.44
2022-11-15T01:44:41.369Z,1.30
2022-11-15T01:47:34.415Z,1.75
2022-11-15T01:50:29.800Z,1.65
2022-11-15T01:53:16.798Z,1.56
2022-11-15T01:56:06.987Z,1.05
2022-11-15T01:58:56.274Z,1.29
2022-11-15T02:01:41.915Z,0.46
2022-11-15T02:04:30.442Z,1.59
2022-11-15T02:07:21.045Z,1.24
2022-11-15T02:10:18.817Z,1.43
2022-11-15T02:13:04.746Z,0.92
2022-11-15T02:16:13.317Z,1.45
2022-11-15T02:19:10.348Z,1.33
2022-11-15T02:22:33.448Z,1.66
2022-11-15T02:25:47.807Z,1.63
2022-11-15T02:29:00.227Z,1.56
2022-11-15T02:32:04.063Z,1.57
2022-11-15T02:35:02.097Z,1.35
2022-11-15T02:37:59.584Z,0.80
2022-11-15T02:41:02.691Z,1.49
2022-11-15T02:43:57.725Z,1.40
2022-11-15T02:47:07.926Z,1.46
2022-11-15T02:50:02.045Z,1.13
2022-11-15T02:52:49.499Z,1.24
2022-11-15T02:55:37.554Z,1.39
2022-11-15T02:58:49.682Z,1.23
2022-11-15T03:01:59.078Z,-0.09
2022-11-15T03:05:05.706Z,1.47
2022-11-15T03:08:35.333Z,1.30
2022-11-15T03:11:22.773Z,1.25
2022-11-15T03:14:14.383Z,1.31
2022-11-15T03:17:12.119Z,1.11
2022-11-15T03:20:02.333Z,1.03
2022-11-15T03:22:50.427Z,0.66
2022-11-15T03:25:41.502Z,0.41
2022-11-15T03:28:29.261Z,1.17
2022-11-15T03:31:36.686Z,1.06
2022-11-15T03:34:39.046Z,-0.52
2022-11-15T03:37:30.823Z,0.68
2022-11-15T03:40:18.159Z,0.28
2022-11-15T03:43:08.036Z,0.78
2022-11-15T03:46:15.657Z,-0.04
2022-11-15T03:49:13.542Z,0.59
2022-11-15T03:51:59.817Z,0.73
2022-11-15T03:54:50.630Z,0.71
2022-11-15T03:57:36.137Z,0.69
2022-11-15T04:00:21.334Z,-0.65
2022-11-15T04:03:06.761Z,0.71
2022-11-15T04:05:52.349Z,-0.56
2022-11-15T04:08:37.458Z,-0.08
2022-11-15T04:11:22.985Z,0.42
2022-11-15T04:14:08.217Z,-0.16
2022-11-15T04:16:53.330Z,-0.25
2022-11-15T04:19:57.171Z,0.63
2022-11-15T04:23:00.880Z,0.77
2022-11-15T04:25:47.661Z,0.12
2022-11-15T04:28:33.048Z,0.13
2022-11-15T04:31:18.026Z,0.51
2022-11-15T04:34:03.707Z,0.71
2022-11-15T04:37:07.629Z,0.93
2022-11-15T04:39:53.192Z,0.71
2022-11-15T04:42:38.278Z,0.60
2022-11-15T04:45:23.921Z,0.90
2022-11-15T04:48:09.399Z,0.79
2022-11-15T04:50:54.639Z,0.89
2022-11-15T04:53:40.192Z,0.73
2022-11-15T04:56:25.089Z,1.00
2022-11-15T04:59:10.714Z,1.13
2022-11-15T05:01:55.587Z,1.07
2022-11-15T05:04:40.987Z,0.93
2022-11-15T05:07:26.630Z,1.35
2022-11-15T05:10:12.100Z,1.55
2022-11-15T05:12:57.520Z,1.48
2022-11-15T05:15:42.782Z,0.60
2022-11-15T05:18:28.141Z,1.40
2022-11-15T05:21:15.941Z,1.30
2022-11-15T05:24:01.942Z,0.66
2022-11-15T05:26:47.431Z,1.29
2022-11-15T05:29:32.606Z,1.43
2022-11-15T05:32:18.863Z,1.42
2022-11-15T05:35:07.984Z,1.78
2022-11-15T05:37:53.318Z,1.38
2022-11-15T05:40:39.078Z,0.58
2022-11-15T05:43:25.098Z,1.11
2022-11-15T05:46:10.998Z,1.34
2022-11-15T05:48:57.779Z,1.16
2022-11-15T05:51:47.461Z,1.20
2022-11-15T05:54:33.782Z,1.81
2022-11-15T05:57:19.366Z,1.84
2022-11-15T06:00:05.891Z,1.83
2022-11-15T06:02:50.869Z,1.23
2022-11-15T06:05:35.964Z,1.23
2022-11-15T06:08:21.137Z,1.73
2022-11-15T06:11:07.821Z,-0.17
2022-11-15T06:13:53.288Z,1.33
2022-11-15T06:16:38.631Z,1.37
2022-11-15T06:19:23.588Z,1.97
2022-11-15T06:22:10.446Z,1.99
2022-11-15T06:24:58.268Z,1.87
2022-11-15T06:27:52.367Z,1.66
2022-11-15T06:30:37.482Z,1.89
2022-11-15T06:33:22.553Z,1.67
2022-11-15T06:36:17.091Z,2.16
2022-11-15T06:39:06.896Z,2.14
2022-11-15T06:41:52.463Z,1.36
2022-11-15T06:44:37.667Z,1.96
2022-11-15T06:47:22.800Z,1.77
2022-11-15T06:50:08.506Z,1.53
2022-11-15T06:52:53.693Z,1.69
2022-11-15T06:55:38.799Z,1.60
2022-11-15T06:58:24.421Z,1.68
2022-11-15T07:01:12.679Z,1.45
2022-11-15T07:03:58.017Z,1.18
2022-11-15T07:06:43.468Z,1.32
2022-11-15T07:09:28.751Z,1.90
2022-11-15T07:12:14.026Z,2.04
2022-11-15T07:14:59.016Z,1.29
2022-11-15T07:17:44.524Z,1.53
2022-11-15T07:20:29.471Z,1.43
2022-11-15T07:23:14.543Z,1.65
2022-11-15T07:26:00.845Z,1.78
2022-11-15T07:28:46.283Z,1.40
2022-11-15T07:31:31.789Z,1.91
2022-11-15T07:34:16.882Z,1.60
2022-11-15T07:37:02.444Z,2.05
2022-11-15T07:39:47.571Z,1.87
2022-11-15T07:42:51.495Z,1.84
2022-11-15T07:45:43.761Z,1.94
2022-11-15T07:48:42.205Z,1.42
2022-11-15T07:51:28.394Z,1.86
2022-11-15T07:54:13.733Z,1.21
2022-11-15T07:57:02.565Z,0.54
2022-11-15T07:59:52.216Z,1.57
2022-11-15T08:02:37.334Z,1.53
2022-11-15T08:05:22.736Z,1.15
2022-11-15T08:08:09.331Z,1.54
2022-11-15T08:10:54.833Z,1.04
2022-11-15T08:13:40.288Z,1.81
2022-11-15T08:16:25.640Z,2.02
2022-11-15T08:19:10.717Z,2.10
2022-11-15T08:21:56.299Z,2.31
2022-11-15T08:24:41.555Z,2.40
2022-11-15T08:27:26.649Z,1.75
2022-11-15T08:30:13.066Z,1.31
2022-11-15T08:32:59.943Z,2.24
2022-11-15T08:35:45.451Z,2.32
2022-11-15T08:38:31.695Z,1.66
2022-11-15T08:41:29.203Z,2.38
2022-11-15T08:44:14.339Z,2.23
2022-11-15T08:46:59.809Z,1.95
2022-11-15T08:49:45.248Z,1.74
2022-11-15T08:52:30.828Z,2.31
2022-11-15T08:55:17.736Z,1.83
2022-11-15T08:58:03.240Z,2.39
2022-11-15T09:00:48.577Z,2.01
2022-11-15T09:03:33.779Z,2.45
2022-11-15T09:06:19.291Z,2.06
2022-11-15T09:09:04.910Z,2.33
2022-11-15T09:11:51.733Z,1.23
2022-11-15T09:14:37.618Z,2.19
2022-11-15T09:17:24.926Z,2.47
2022-11-15T09:20:11.172Z,1.99
2022-11-15T09:23:00.794Z,2.17
2022-11-15T09:25:46.428Z,1.97
2022-11-15T09:28:33.958Z,2.41
2022-11-15T09:31:22.178Z,2.70
2022-11-15T09:34:07.860Z,2.44
2022-11-15T09:36:53.203Z,2.28
2022-11-15T09:39:38.957Z,2.83
2022-11-15T09:42:56.435Z,2.78
2022-11-15T09:45:51.398Z,0.97
2022-11-15T09:48:58.926Z,2.38
2022-11-15T09:51:47.683Z,2.81
2022-11-15T09:54:53.978Z,2.85
2022-11-15T09:58:01.743Z,2.00
2022-11-15T10:00:46.533Z,2.81
2022-11-15T10:03:16.193Z,2.81
2022-11-15T10:05:46.579Z,2.79
2022-11-15T10:08:28.844Z,2.79
2022-11-15T10:11:35.517Z,2.28
2022-11-15T10:13:53.662Z,2.77
2022-11-15T10:16:48.121Z,2.82
2022-11-15T10:19:25.230Z,2.63
2022-11-15T10:22:14.976Z,3.05
2022-11-15T10:24:45.233Z,2.59
2022-11-15T10:27:13.553Z,3.11
2022-11-15T10:29:51.190Z,2.61
2022-11-15T10:32:19.999Z,2.82
2022-11-15T10:34:48.064Z,2.66
2022-11-15T10:37:14.976Z,1.49
2022-11-15T10:39:41.828Z,2.80
2022-11-15T10:42:29.317Z,2.77
2022-11-15T10:44:56.174Z,3.34
2022-11-15T10:47:29.191Z,3.49
2022-11-15T10:50:05.501Z,3.06
2022-11-15T10:52:35.907Z,3.29
2022-11-15T10:55:17.786Z,3.27
2022-11-15T10:57:51.506Z,3.44
2022-11-15T11:00:21.070Z,3.51
2022-11-15T11:02:56.540Z,3.52
2022-11-15T11:05:38.142Z,3.59
2022-11-15T11:08:11.247Z,3.55
2022-11-15T11:10:51.770Z,3.22
2022-11-15T11:13:31.448Z,2.48
2022-11-15T11:16:01.101Z,3.51
2022-11-15T11:18:53.166Z,3.22
2022-11-15T11:21:55.195Z,3.24
2022-11-15T11:24:45.056Z,3.46
2022-11-15T11:27:31.542Z,2.85
2022-11-15T11:30:33.055Z,3.33
2022-11-15T11:33:17.185Z,3.47
2022-11-15T11:36:04.431Z,3.41
2022-11-15T11:38:59.162Z,3.43
2022-11-15T11:41:54.210Z,3.49
2022-11-15T11:44:26.482Z,3.47
2022-11-15T11:46:55.988Z,3.44
2022-11-15T11:49:29.370Z,2.70
2022-11-15T11:52:09.027Z,2.66
2022-11-15T11:54:47.988Z,3.33
2022-11-15T11:57:28.102Z,3.58
2022-11-15T12:00:03.351Z,2.31
2022-11-15T12:02:44.409Z,3.23
2022-11-15T12:05:18.975Z,3.58
2022-11-15T12:07:47.984Z,3.06
2022-11-15T12:10:30.274Z,3.71
2022-11-15T12:13:05.529Z,3.82
2022-11-15T12:15:46.591Z,3.66
2022-11-15T12:18:16.371Z,3.68
2022-11-15T12:20:54.271Z,3.95
2022-11-15T12:23:27.601Z,3.40
2022-11-15T12:26:00.600Z,3.17
2022-11-15T12:29:06.365Z,3.67
2022-11-15T12:31:45.772Z,3.89
2022-11-15T12:34:21.563Z,3.87
2022-11-15T12:36:52.002Z,3.37
2022-11-15T12:39:19.082Z,3.95
2022-11-15T12:42:06.054Z,4.01
2022-11-15T12:44:32.639Z,4.03
2022-11-15T12:46:59.271Z,4.00
2022-11-15T12:49:28.995Z,4.08
2022-11-15T12:51:58.582Z,4.05
2022-11-15T12:54:25.378Z,4.10
2022-11-15T12:57:04.330Z,4.08
2022-11-15T12:59:56.039Z,3.79
2022-11-15T13:02:25.694Z,3.79
2022-11-15T13:04:54.774Z,3.77
2022-11-15T13:07:36.664Z,4.11
2022-11-15T13:10:27.922Z,3.95
2022-11-15T13:12:57.008Z,4.06
2022-11-15T13:15:53.904Z,3.94
2022-11-15T13:18:38.735Z,2.80
2022-11-15T13:21:39.486Z,3.98
2022-11-15T13:24:13.406Z,4.08
2022-11-15T13:26:43.180Z,3.81
2022-11-15T13:29:18.053Z,3.88
2022-11-15T13:31:45.728Z,3.99
2022-11-15T13:34:49.485Z,4.03
2022-11-15T13:37:29.711Z,3.85
2022-11-15T13:40:24.732Z,3.66
2022-11-15T13:42:52.269Z,4.12
2022-11-15T13:45:20.371Z,3.89
2022-11-15T13:47:53.036Z,3.83
2022-11-15T13:50:22.888Z,4.01
2022-11-15T13:52:49.968Z,4.41
2022-11-15T13:55:20.501Z,4.39
2022-11-15T13:57:52.420Z,3.77
2022-11-15T14:00:36.090Z,3.98
2022-11-15T14:03:22.107Z,3.79
2022-11-15T14:06:13.279Z,4.14
2022-11-15T14:08:42.024Z,3.87
2022-11-15T14:11:09.030Z,4.26
2022-11-15T14:13:36.220Z,4.24
2022-11-15T14:16:33.165Z,3.92
2022-11-15T14:19:00.022Z,3.88
2022-11-15T14:21:26.793Z,4.28
2022-11-15T14:23:53.438Z,3.74
2022-11-15T14:26:34.785Z,4.01
2022-11-15T14:29:27.376Z,4.29
2022-11-15T14:31:55.584Z,3.83
2022-11-15T14:34:23.304Z,3.73
2022-11-15T14:36:50.013Z,3.94
2022-11-15T14:39:17.052Z,4.10
2022-11-15T14:41:44.591Z,3.89
2022-11-15T14:44:12.180Z,4.30
2022-11-15T14:46:38.818Z,3.81
2022-11-15T14:49:05.902Z,4.49
2022-11-15T14:51:33.932Z,4.01
2022-11-15T14:54:00.971Z,3.65
2022-11-15T14:56:27.804Z,4.05
2022-11-15T14:58:56.268Z,4.21
2022-11-15T15:01:26.213Z,4.18
2022-11-15T15:03:57.896Z,4.49
2022-11-15T15:06:25.219Z,4.45
2022-11-15T15:08:52.167Z,4.20
2022-11-15T15:11:24.365Z,4.32
2022-11-15T15:13:51.850Z,3.95
2022-11-15T15:16:18.847Z,4.30
2022-11-15T15:18:45.459Z,4.56
2022-11-15T15:21:24.039Z,3.97
2022-11-15T15:23:51.470Z,4.63
2022-11-15T15:26:18.630Z,4.59
2022-11-15T15:28:45.393Z,4.14
2022-11-15T15:31:12.382Z,4.28
2022-11-15T15:33:39.033Z,4.56
2022-11-15T15:36:06.098Z,3.73
2022-11-15T15:38:33.325Z,4.92
2022-11-15T15:41:02.931Z,4.88
2022-11-15T15:43:29.778Z,4.57
2022-11-15T15:45:56.406Z,4.31
2022-11-15T15:48:23.137Z,5.03
2022-11-15T15:50:50.303Z,5.15
2022-11-15T15:53:18.299Z,5.24
2022-11-15T15:55:45.093Z,5.17
2022-11-15T15:58:11.834Z,4.93
2022-11-15T16:00:39.006Z,5.33
2022-11-15T16:03:05.686Z,4.65
2022-11-15T16:05:32.644Z,4.93
2022-11-15T16:07:59.685Z,4.57
2022-11-15T16:10:30.243Z,4.99
2022-11-15T16:12:58.622Z,5.06
2022-11-15T16:15:28.028Z,5.26
2022-11-15T16:17:57.011Z,4.97
2022-11-15T16:20:40.550Z,4.73
2022-11-15T16:23:10.695Z,4.73
2022-11-15T16:25:49.512Z,4.73
2022-11-15T16:28:31.667Z,4.96
2022-11-15T16:31:10.137Z,4.93
2022-11-15T16:33:37.708Z,5.27
2022-11-15T16:36:19.219Z,5.37
2022-11-15T16:38:46.048Z,5.28
2022-11-15T16:41:12.742Z,5.04
2022-11-15T16:43:39.590Z,5.33
2022-11-15T16:46:21.659Z,4.27
2022-11-15T16:48:49.288Z,5.26
2022-11-15T16:51:18.784Z,5.22
2022-11-15T16:53:51.342Z,4.99
2022-11-15T16:56:23.941Z,5.08
2022-11-15T16:58:50.912Z,4.95
2022-11-15T17:01:21.269Z,5.10
2022-11-15T17:03:48.110Z,4.51
2022-11-15T17:06:15.500Z,5.08
2022-11-15T17:08:42.481Z,4.71
2022-11-15T17:11:09.783Z,4.35
2022-11-15T17:13:36.558Z,4.36
2022-11-15T17:16:08.768Z,4.92
2022-11-15T17:18:36.388Z,5.01
2022-11-15T17:21:14.162Z,3.10
2022-11-15T17:23:41.319Z,3.90
2022-11-15T17:26:29.027Z,4.81
2022-11-15T17:28:57.134Z,4.34
2022-11-15T17:31:25.401Z,4.62
2022-11-15T17:33:52.270Z,4.79
2022-11-15T17:36:19.319Z,4.29
2022-11-15T17:38:50.410Z,4.67
2022-11-15T17:41:17.215Z,4.54
2022-11-15T17:43:44.313Z,4.51
2022-11-15T17:46:14.899Z,4.86
2022-11-15T17:48:42.011Z,4.58
2022-11-15T17:51:11.769Z,4.89
2022-11-15T17:53:44.023Z,4.42
2022-11-15T17:56:16.363Z,4.48
2022-11-15T17:59:00.764Z,4.42
2022-11-15T18:01:30.057Z,4.76
2022-11-15T18:04:00.109Z,4.84
2022-11-15T18:06:30.456Z,4.32
2022-11-15T18:08:57.296Z,5.12
2022-11-15T18:11:26.833Z,5.03
2022-11-15T18:13:56.994Z,4.25
2022-11-15T18:16:26.100Z,5.33
2022-11-15T18:18:55.915Z,5.39
2022-11-15T18:21:30.831Z,4.30
2022-11-15T18:24:00.049Z,5.27
2022-11-15T18:26:28.513Z,5.56
2022-11-15T18:28:57.299Z,5.38
2022-11-15T18:31:27.196Z,4.47
2022-11-15T18:33:54.391Z,5.15
2022-11-15T18:36:23.963Z,4.84
2022-11-15T18:39:05.056Z,4.89
2022-11-15T18:41:35.063Z,4.38
2022-11-15T18:44:05.493Z,4.51
2022-11-15T18:46:32.238Z,4.96
2022-11-15T18:49:01.372Z,4.70
2022-11-15T18:51:30.289Z,3.62
2022-11-15T18:53:59.972Z,4.49
2022-11-15T18:56:28.351Z,5.03
2022-11-15T18:58:57.549Z,4.92
2022-11-15T19:01:32.622Z,5.07
2022-11-15T19:04:04.525Z,4.66
2022-11-15T19:06:31.426Z,4.45
2022-11-15T19:08:59.406Z,5.25
2022-11-15T19:11:35.769Z,4.98
2022-11-15T19:14:10.868Z,5.01
2022-11-15T19:16:40.031Z,5.15
2022-11-15T19:19:12.054Z,5.56
2022-11-15T19:21:39.336Z,5.59
2022-11-15T19:24:06.778Z,4.94
2022-11-15T19:26:33.582Z,5.08
2022-11-15T19:29:01.888Z,5.67
2022-11-15T19:31:31.715Z,5.61
2022-11-15T19:34:00.169Z,5.12
2022-11-15T19:36:32.802Z,5.21
2022-11-15T19:39:05.690Z,5.02
2022-11-15T19:41:52.137Z,5.75
2022-11-15T19:44:19.717Z,5.57
2022-11-15T19:46:46.496Z,4.75
2022-11-15T19:49:13.440Z,5.39
2022-11-15T19:51:42.680Z,5.22
2022-11-15T19:54:10.589Z,5.41
2022-11-15T19:56:37.901Z,5.32
2022-11-15T19:59:05.311Z,5.49
2022-11-15T20:01:36.327Z,5.56
2022-11-15T20:04:03.405Z,4.58
2022-11-15T20:06:39.790Z,5.56
2022-11-15T20:09:06.579Z,5.26
2022-11-15T20:11:34.345Z,5.94
2022-11-15T20:14:04.999Z,5.97
2022-11-15T20:16:31.830Z,6.00
2022-11-15T20:18:58.652Z,5.74
2022-11-15T20:21:25.377Z,5.58
2022-11-15T20:23:52.625Z,5.31
2022-11-15T20:26:20.510Z,5.98
2022-11-15T20:28:48.251Z,5.97
2022-11-15T20:31:26.353Z,5.84
2022-11-15T20:33:53.011Z,5.39
2022-11-15T20:36:19.739Z,5.75
2022-11-15T20:38:46.462Z,5.57
2022-11-15T20:41:14.540Z,5.77
2022-11-15T20:43:43.561Z,5.41
2022-11-15T20:46:12.172Z,4.85
2022-11-15T20:48:39.108Z,5.49
2022-11-15T20:51:11.355Z,5.83
2022-11-15T20:53:41.853Z,5.04
2022-11-15T20:56:13.988Z,5.95
2022-11-15T20:58:42.266Z,5.75
2022-11-15T21:01:11.922Z,5.96
2022-11-15T21:03:38.721Z,5.86
2022-11-15T21:06:05.816Z,5.86
2022-11-15T21:08:54.291Z,5.64
2022-11-15T21:11:39.827Z,5.91
2022-11-15T21:14:09.507Z,5.89
2022-11-15T21:16:37.401Z,5.45
2022-11-15T21:19:05.717Z,4.95
2022-11-15T21:21:32.609Z,5.27
2022-11-15T21:23:59.313Z,5.83
2022-11-15T21:26:26.804Z,5.18
2022-11-15T21:28:53.644Z,5.38
2022-11-15T21:31:20.446Z,5.32
2022-11-15T21:33:47.181Z,5.38
2022-11-15T21:36:14.313Z,5.28
2022-11-15T21:38:41.224Z,5.91
2022-11-15T21:41:08.045Z,5.54
2022-11-15T21:43:34.804Z,5.52
2022-11-15T21:46:04.029Z,5.85
2022-11-15T21:48:33.110Z,5.41
2022-11-15T21:51:08.225Z,5.82
2022-11-15T21:53:35.283Z,4.56
2022-11-15T21:56:03.234Z,5.86
2022-11-15T21:58:31.238Z,5.49
2022-11-15T22:01:17.345Z,5.24
2022-11-15T22:03:44.246Z,5.52
2022-11-15T22:06:17.210Z,5.56
2022-11-15T22:08:46.176Z,5.19
2022-11-15T22:11:13.601Z,5.61
2022-11-15T22:13:40.329Z,5.32
2022-11-15T22:16:08.692Z,6.04
2022-11-15T22:18:36.606Z,6.12
2022-11-15T22:21:06.167Z,5.39
2022-11-15T22:23:33.934Z,5.90
2022-11-15T22:26:01.384Z,5.94
2022-11-15T22:28:28.354Z,5.50
2022-11-15T22:30:55.472Z,5.64
2022-11-15T22:33:24.649Z,5.18
2022-11-15T22:35:51.624Z,5.90
2022-11-15T22:38:18.692Z,5.52
2022-11-15T22:40:46.823Z,5.52
2022-11-15T22:43:15.827Z,6.05
2022-11-15T22:45:51.492Z,5.97
2022-11-15T22:48:20.715Z,5.94
2022-11-15T22:50:47.691Z,5.87
2022-11-15T22:53:14.444Z,5.08
2022-11-15T22:55:41.913Z,5.61
2022-11-15T22:58:09.132Z,6.00
2022-11-15T23:00:37.362Z,5.86
2022-11-15T23:03:04.401Z,4.51
2022-11-15T23:05:31.245Z,5.47
2022-11-15T23:07:58.014Z,5.20
2022-11-15T23:10:43.547Z,5.38
2022-11-15T23:13:16.224Z,5.55
2022-11-15T23:16:07.440Z,5.46
2022-11-15T23:18:36.144Z,5.51
2022-11-15T23:21:17.883Z,4.99
2022-11-15T23:23:44.629Z,5.16
2022-11-15T23:26:12.069Z,5.83
2022-11-15T23:28:38.846Z,5.51
2022-11-15T23:31:25.650Z,5.82
2022-11-15T23:33:58.823Z,5.64
2022-11-15T23:36:27.246Z,5.87
2022-11-15T23:38:54.469Z,5.46
2022-11-15T23:41:23.811Z,5.78
2022-11-15T23:43:51.441Z,4.53
2022-11-15T23:46:18.737Z,5.23
2022-11-15T23:48:45.526Z,5.69
2022-11-15T23:51:12.367Z,5.35
2022-11-15T23:53:39.418Z,5.29
2022-11-15T23:56:10.504Z,5.32
2022-11-15T23:58:37.734Z,5.00
